Time;durP1;ratioP1;P1;durP2;ratioP2;P2;SDS_P1;SDS_P2;PMS_P1;PMS_P2;Temp;Humidity;BMP_temperature;BMP_pressure;BME280_temperature;BME280_humidity;BME280_pressure;Samples;Min_cycle;Max_cycle;Signal;HPM_P1;HPM_P2
2021/10/31 00:00:17;;;;;;;;;;;;;;;10.18;100.00;100541.38;4876899;29;19935;-54
2021/10/31 00:02:44;;;;;;;;;;;;;;;10.19;100.00;100543.91;4879085;29;19928;-50
2021/10/31 00:05:11;;;;;;;;;;;;;;;10.15;100.00;100545.03;4878069;29;20030;-54
2021/10/31 00:07:37;;;;;;;;;;;;;;;10.13;100.00;100552.22;4876478;29;19928;-50
2021/10/31 00:10:05;;;;;;;;;;;;;;;10.09;100.00;100542.81;4877942;29;19928;-50
2021/10/31 00:12:32;;;;;;;;;;;;;;;10.07;100.00;100555.25;4878614;29;19976;-51
2021/10/31 00:14:58;;;;;;;;;;;;;;;10.05;100.00;100557.13;4861968;29;19932;-55
2021/10/31 00:17:25;;;;;;;;;;;;;;;10.02;100.00;100567.84;4858357;29;19928;-54
2021/10/31 00:19:53;;;;;;;;;;;;;;;9.97;100.00;100563.72;4876270;29;19935;-54
2021/10/31 00:22:20;;;;;;;;;;;;;;;9.92;100.00;100563.19;4859838;29;19932;-50
2021/10/31 00:24:47;;;;;;;;;;;;;;;9.95;100.00;100573.53;4879727;29;19928;-57
2021/10/31 00:27:14;;;;;;;;;;;;;;;9.90;100.00;100570.34;4880751;29;20317;-51
2021/10/31 00:29:41;;;;;;;;;;;;;;;9.88;100.00;100572.22;4881807;29;19980;-50
2021/10/31 00:32:07;;;;;;;;;;;;;;;9.85;100.00;100566.34;4877817;29;19935;-49
2021/10/31 00:34:34;;;;;;;;;;;;;;;9.82;100.00;100572.66;4878578;29;19934;-53
2021/10/31 00:37:01;;;;;;;;;;;;;;;9.80;100.00;100577.16;4879517;29;20455;-49
2021/10/31 00:39:29;;;;;;;;;;;;;;;9.78;100.00;100576.41;4863203;29;20451;-49
2021/10/31 00:41:56;;;;;;;;;;;;;;;9.73;100.00;100579.34;4881424;29;20372;-53
2021/10/31 00:44:22;;;;;;;;;;;;;;;9.71;100.00;100580.41;4862887;29;19928;-51
2021/10/31 00:46:49;;;;;;;;;;;;;;;9.74;100.00;100583.66;4877095;29;19932;-53
2021/10/31 00:49:17;;;;;;;;;;;;;;;9.70;100.00;100576.09;4895812;29;19934;-52
2021/10/31 00:51:44;;;;;;;;;;;;;;;9.66;100.00;100577.22;4881215;29;19975;-52
2021/10/31 00:54:11;;;;;;;;;;;;;;;9.62;100.00;100576.56;4893489;29;19932;-52
2021/10/31 00:56:37;;;;;;;;;;;;;;;9.58;100.00;100581.19;4892751;29;19984;-48
2021/10/31 00:59:04;;;;;;;;;;;;;;;9.58;100.00;100570.66;4881560;29;19927;-51
2021/10/31 01:01:32;;;;;;;;;;;;;;;9.55;100.00;100572.69;4893384;29;20451;-52
2021/10/31 01:03:59;;;;;;;;;;;;;;;9.55;100.00;100570.06;4862536;29;20518;-49
2021/10/31 01:06:48;;;;;;;;;;;;;;;9.53;100.00;100582.41;4880858;29;19928;-53
2021/10/31 01:09:19;;;;;;;;;;;;;;;9.50;100.00;100572.97;4871825;29;19932;-52
2021/10/31 01:12:04;;;;;;;;;;;;;;;9.49;100.00;100571.28;4881312;29;20572;-47
2021/10/31 01:14:43;;;;;;;;;;;;;;;9.51;100.00;100574.66;4864469;29;20391;-45
2021/10/31 01:17:36;;;;;;;;;;;;;;;9.45;100.00;100575.91;4881210;29;20380;-44
2021/10/31 01:20:18;;;;;;;;;;;;;;;9.43;100.00;100574.31;4881032;29;19928;-44
2021/10/31 01:22:54;;;;;;;;;;;;;;;9.35;100.00;100579.22;4881487;29;19935;-47
2021/10/31 01:25:31;;;;;;;;;;;;;;;9.39;100.00;100583.31;4879182;29;19928;-45
2021/10/31 01:28:01;;;;;;;;;;;;;;;9.34;100.00;100590.63;4877493;29;19928;-45
2021/10/31 01:30:33;;;;;;;;;;;;;;;9.33;100.00;100587.19;4894983;29;20375;-44
2021/10/31 01:33:00;;;;;;;;;;;;;;;9.30;100.00;100587.38;4876547;29;20399;-47
2021/10/31 01:35:50;;;;;;;;;;;;;;;9.25;100.00;100585.03;4878624;29;20311;-47
2021/10/31 01:38:29;;;;;;;;;;;;;;;9.25;100.00;100581.59;4877776;29;19976;-45
2021/10/31 01:41:02;;;;;;;;;;;;;;;9.22;100.00;100580.00;4878026;29;19931;-44
2021/10/31 01:43:42;;;;;;;;;;;;;;;9.24;100.00;100582.50;4862141;29;19932;-45
2021/10/31 01:46:22;;;;;;;;;;;;;;;9.20;100.00;100594.16;4894255;29;19983;-47
2021/10/31 01:48:52;;;;;;;;;;;;;;;9.15;100.00;100599.69;4877630;29;20468;-47
2021/10/31 01:51:23;;;;;;;;;;;;;;;9.11;100.00;100601.66;4893262;29;19928;-46
2021/10/31 01:53:53;;;;;;;;;;;;;;;9.10;100.00;100604.38;4879469;29;19947;-48
2021/10/31 01:56:20;;;;;;;;;;;;;;;9.06;100.00;100595.03;4891945;29;19932;-45
2021/10/31 01:58:50;;;;;;;;;;;;;;;9.06;100.00;100602.88;4894188;29;19951;-48
2021/10/31 02:01:17;;;;;;;;;;;;;;;9.00;100.00;100605.88;4894762;29;20423;-49
2021/10/31 02:03:44;;;;;;;;;;;;;;;8.94;100.00;100602.72;4893877;29;19931;-45
2021/10/31 02:06:10;;;;;;;;;;;;;;;8.91;100.00;100597.66;4878233;29;19979;-47
2021/10/31 02:08:37;;;;;;;;;;;;;;;8.91;100.00;100608.13;4877828;29;19979;-47
2021/10/31 02:11:04;;;;;;;;;;;;;;;8.89;100.00;100604.78;4893797;29;19983;-51
2021/10/31 02:13:31;;;;;;;;;;;;;;;8.87;100.00;100601.41;4880064;29;19928;-45
2021/10/31 02:15:57;;;;;;;;;;;;;;;8.83;100.00;100599.91;4878660;29;19983;-47
2021/10/31 02:18:26;;;;;;;;;;;;;;;8.79;100.00;100601.03;4891443;29;19927;-44
2021/10/31 02:20:55;;;;;;;;;;;;;;;8.77;100.00;100595.06;4876125;29;19983;-48
2021/10/31 02:23:22;;;;;;;;;;;;;;;8.76;100.00;100599.44;4893022;29;20034;-43
2021/10/31 02:25:49;;;;;;;;;;;;;;;8.74;100.00;100590.84;4879921;29;19972;-49
2021/10/31 02:28:16;;;;;;;;;;;;;;;8.74;100.00;100600.47;4880075;29;19935;-44
2021/10/31 02:30:42;;;;;;;;;;;;;;;8.74;100.00;100597.84;4879963;29;20435;-47
2021/10/31 02:33:09;;;;;;;;;;;;;;;8.77;100.00;100602.91;4879575;29;19927;-53
2021/10/31 02:35:36;;;;;;;;;;;;;;;8.77;100.00;100600.31;4878364;29;19928;-50
2021/10/31 02:38:02;;;;;;;;;;;;;;;8.70;100.00;100604.22;4877722;29;19928;-49
2021/10/31 02:40:31;;;;;;;;;;;;;;;8.75;100.00;100607.41;4877572;29;19967;-52
2021/10/31 02:42:58;;;;;;;;;;;;;;;8.70;100.00;100599.81;4876840;29;19939;-54
2021/10/31 02:45:25;;;;;;;;;;;;;;;8.68;100.00;100603.47;4877704;29;19932;-53
2021/10/31 02:47:53;;;;;;;;;;;;;;;8.65;100.00;100598.44;4878016;29;20673;-51
2021/10/31 02:50:21;;;;;;;;;;;;;;;8.66;100.00;100595.72;4877285;29;19932;-53
2021/10/31 02:53:09;;;;;;;;;;;;;;;8.71;100.00;100608.53;4892991;29;19935;-53
2021/10/31 02:55:39;;;;;;;;;;;;;;;8.67;100.00;100607.03;4893629;29;19934;-44
2021/10/31 02:58:06;;;;;;;;;;;;;;;8.67;100.00;100604.41;4879562;29;19935;-46
2021/10/31 03:00:34;;;;;;;;;;;;;;;8.66;100.00;100605.34;4862318;29;19951;-45
2021/10/31 03:03:01;;;;;;;;;;;;;;;8.63;100.00;100606.38;4877857;29;20394;-44
2021/10/31 03:05:27;;;;;;;;;;;;;;;8.67;100.00;100600.03;4877164;29;20276;-45
2021/10/31 03:07:55;;;;;;;;;;;;;;;8.69;100.00;100607.78;4878361;29;20300;-46
2021/10/31 03:10:21;;;;;;;;;;;;;;;8.64;100.00;100597.56;4879278;29;20348;-46
2021/10/31 03:12:48;;;;;;;;;;;;;;;8.56;100.00;100587.56;4878268;29;20269;-45
2021/10/31 03:15:15;;;;;;;;;;;;;;;8.57;100.00;100594.47;4877027;29;19972;-46
2021/10/31 03:17:42;;;;;;;;;;;;;;;8.62;100.00;100596.84;4875007;29;19928;-46
2021/10/31 03:20:09;;;;;;;;;;;;;;;8.60;100.00;100588.22;4876410;29;20396;-46
2021/10/31 03:22:36;;;;;;;;;;;;;;;8.60;100.00;100588.22;4877387;29;19984;-45
2021/10/31 03:25:03;;;;;;;;;;;;;;;8.65;100.00;100593.19;4893301;29;20299;-46
2021/10/31 03:27:30;;;;;;;;;;;;;;;8.61;100.00;100589.91;4876385;29;19932;-44
2021/10/31 03:29:57;;;;;;;;;;;;;;;8.59;100.00;100586.53;4877788;29;19927;-43
2021/10/31 03:32:23;;;;;;;;;;;;;;;8.56;100.00;100595.44;4862680;29;19935;-46
2021/10/31 03:34:51;;;;;;;;;;;;;;;8.56;100.00;100590.19;4878875;29;20026;-46
2021/10/31 03:37:17;;;;;;;;;;;;;;;8.54;100.00;100592.03;4879008;29;20323;-46
2021/10/31 03:39:44;;;;;;;;;;;;;;;8.57;100.00;100589.22;4876238;29;19988;-47
2021/10/31 03:42:10;;;;;;;;;;;;;;;8.58;100.00;100585.69;4876027;29;19938;-44
2021/10/31 03:44:47;;;;;;;;;;;;;;;8.58;100.00;100588.31;4859708;29;20566;-45
2021/10/31 03:47:15;;;;;;;;;;;;;;;8.65;100.00;100591.41;4875299;29;20023;-45
2021/10/31 03:49:41;;;;;;;;;;;;;;;8.63;100.00;100599.34;4875528;29;19932;-44
2021/10/31 03:52:08;;;;;;;;;;;;;;;8.68;100.00;100606.09;4876968;29;20311;-47
2021/10/31 03:54:35;;;;;;;;;;;;;;;8.64;100.00;100597.56;4876506;29;19928;-45
2021/10/31 03:57:02;;;;;;;;;;;;;;;8.65;100.00;100608.91;4875466;29;19927;-44
2021/10/31 03:59:28;;;;;;;;;;;;;;;8.66;100.00;100600.94;4878569;29;19931;-45
2021/10/31 04:01:55;;;;;;;;;;;;;;;8.62;100.00;100592.41;4881844;29;20305;-43
2021/10/31 04:04:22;;;;;;;;;;;;;;;8.60;100.00;100602.19;4865869;29;19950;-49
2021/10/31 04:06:48;;;;;;;;;;;;;;;8.68;100.00;100600.84;4864703;29;19935;-50
2021/10/31 04:09:15;;;;;;;;;;;;;;;8.65;100.00;100598.44;4880133;29;19927;-49
2021/10/31 04:11:41;;;;;;;;;;;;;;;8.63;100.00;100595.91;4879428;29;20383;-56
2021/10/31 04:14:08;;;;;;;;;;;;;;;8.66;100.00;100600.94;4879124;29;20306;-50
2021/10/31 04:16:35;;;;;;;;;;;;;;;8.67;100.00;100599.16;4877781;29;19928;-52
2021/10/31 04:19:02;;;;;;;;;;;;;;;8.65;100.00;100593.19;4879352;29;20300;-51
2021/10/31 04:21:28;;;;;;;;;;;;;;;8.67;100.00;100588.69;4880286;29;19928;-53
2021/10/31 04:23:55;;;;;;;;;;;;;;;8.67;100.00;100592.16;4879397;29;19987;-49
2021/10/31 04:26:22;;;;;;;;;;;;;;;8.69;100.00;100581.56;4879362;29;20388;-52
2021/10/31 04:28:49;;;;;;;;;;;;;;;8.67;100.00;100583.44;4881399;29;20030;-51
2021/10/31 04:31:15;;;;;;;;;;;;;;;8.70;100.00;100583.22;4896421;29;19927;-51
2021/10/31 04:33:43;;;;;;;;;;;;;;;8.71;100.00;100580.53;4881751;29;19967;-50
2021/10/31 04:36:09;;;;;;;;;;;;;;;8.65;100.00;100580.06;4882143;29;20411;-50
2021/10/31 04:38:36;;;;;;;;;;;;;;;8.67;100.00;100583.44;4880536;29;19976;-45
2021/10/31 04:41:05;;;;;;;;;;;;;;;8.61;100.00;100577.63;4862736;29;19932;-45
2021/10/31 04:43:32;;;;;;;;;;;;;;;8.61;100.00;100574.16;4879084;29;19939;-44
2021/10/31 04:45:58;;;;;;;;;;;;;;;8.57;100.00;100575.28;4878799;29;19939;-46
2021/10/31 04:48:25;;;;;;;;;;;;;;;8.56;100.00;100577.09;4893168;29;19928;-48
2021/10/31 04:50:52;;;;;;;;;;;;;;;8.56;100.00;100576.22;4878716;29;19928;-47
2021/10/31 04:53:19;;;;;;;;;;;;;;;8.57;100.00;100563.00;4862671;29;19932;-44
2021/10/31 04:55:46;;;;;;;;;;;;;;;8.56;100.00;100573.59;4878220;29;19931;-46
2021/10/31 04:58:13;;;;;;;;;;;;;;;8.55;100.00;100570.16;4878718;29;19928;-46
2021/10/31 05:00:39;;;;;;;;;;;;;;;8.51;100.00;100570.41;4881620;29;20388;-46
2021/10/31 05:03:07;;;;;;;;;;;;;;;8.54;100.00;100572.88;4895779;29;20448;-43
2021/10/31 05:05:33;;;;;;;;;;;;;;;8.57;100.00;100567.44;4881668;29;19932;-47
2021/10/31 05:08:01;;;;;;;;;;;;;;;8.54;100.00;100578.09;4881527;29;19931;-51
2021/10/31 05:10:28;;;;;;;;;;;;;;;8.52;100.00;100561.63;4895622;29;19971;-51
2021/10/31 05:12:55;;;;;;;;;;;;;;;8.51;100.00;100565.16;4881200;29;19928;-51
2021/10/31 05:15:21;;;;;;;;;;;;;;;8.52;100.00;100569.47;4878605;29;20422;-52
2021/10/31 05:17:49;;;;;;;;;;;;;;;8.51;100.00;100570.41;4877208;29;19963;-52
2021/10/31 05:20:16;;;;;;;;;;;;;;;8.49;100.00;100567.88;4879980;29;19928;-51
2021/10/31 05:22:43;;;;;;;;;;;;;;;8.49;100.00;100561.81;4881475;29;19928;-49
2021/10/31 05:25:10;;;;;;;;;;;;;;;8.44;100.00;100556.84;4881174;29;20380;-52
2021/10/31 05:27:36;;;;;;;;;;;;;;;8.42;100.00;100546.41;4880942;29;19928;-52
2021/10/31 05:30:04;;;;;;;;;;;;;;;8.46;100.00;100541.88;4881007;29;19928;-51
2021/10/31 05:32:35;;;;;;;;;;;;;;;8.51;100.00;100552.94;4881100;29;19980;-51
2021/10/31 05:35:03;;;;;;;;;;;;;;;8.46;100.00;100553.19;4880789;29;19975;-50
2021/10/31 05:37:37;;;;;;;;;;;;;;;8.43;100.00;100548.09;4880945;29;20288;-54
2021/10/31 05:40:04;;;;;;;;;;;;;;;8.50;100.00;100535.50;4880946;29;19932;-45
2021/10/31 05:42:32;;;;;;;;;;;;;;;8.45;100.00;100545.41;4880110;29;19957;-45
2021/10/31 05:44:58;;;;;;;;;;;;;;;8.50;100.00;100539.91;4878559;29;19931;-44
2021/10/31 05:47:25;;;;;;;;;;;;;;;8.42;100.00;100543.78;4877021;29;19955;-44
2021/10/31 05:49:52;;;;;;;;;;;;;;;8.39;100.00;100551.03;4880282;29;19935;-47
2021/10/31 05:52:19;;;;;;;;;;;;;;;8.36;100.00;100543.34;4861554;29;19955;-47
2021/10/31 05:54:45;;;;;;;;;;;;;;;8.36;100.00;100538.94;4877385;29;20032;-45
2021/10/31 05:57:12;;;;;;;;;;;;;;;8.37;100.00;100538.00;4877930;29;19927;-46
2021/10/31 05:59:39;;;;;;;;;;;;;;;8.39;100.00;100537.91;4877712;29;20432;-46
2021/10/31 06:02:09;;;;;;;;;;;;;;;8.40;100.00;100524.72;4876964;29;19991;-45
2021/10/31 06:04:36;;;;;;;;;;;;;;;8.39;100.00;100524.81;4878874;29;20353;-48
2021/10/31 06:07:03;;;;;;;;;;;;;;;8.41;100.00;100522.94;4878353;29;19936;-46
2021/10/31 06:09:29;;;;;;;;;;;;;;;8.42;100.00;100522.00;4878103;29;19938;-46
2021/10/31 06:11:56;;;;;;;;;;;;;;;8.45;100.00;100522.69;4860794;29;19935;-44
2021/10/31 06:14:24;;;;;;;;;;;;;;;8.39;100.00;100524.81;4892836;29;19927;-48
2021/10/31 06:16:53;;;;;;;;;;;;;;;8.37;100.00;100524.91;4893953;29;19980;-48
2021/10/31 06:19:20;;;;;;;;;;;;;;;8.41;100.00;100523.78;4880239;29;20139;-45
2021/10/31 06:21:47;;;;;;;;;;;;;;;8.37;100.00;100532.78;4893688;29;19935;-46
2021/10/31 06:24:14;;;;;;;;;;;;;;;8.48;100.00;100526.03;4863689;29;19935;-47
2021/10/31 06:26:40;;;;;;;;;;;;;;;8.53;100.00;100511.72;4863573;29;19932;-46
2021/10/31 06:29:07;;;;;;;;;;;;;;;8.49;100.00;100509.41;4880045;29;19927;-43
2021/10/31 06:31:34;;;;;;;;;;;;;;;8.50;100.00;100513.72;4880050;29;19928;-48
2021/10/31 06:34:01;;;;;;;;;;;;;;;8.59;100.00;100510.53;4879833;29;19932;-44
2021/10/31 06:36:28;;;;;;;;;;;;;;;8.59;100.00;100498.25;4863216;29;20543;-48
2021/10/31 06:38:55;;;;;;;;;;;;;;;8.65;100.00;100490.94;4879736;29;19976;-46
2021/10/31 06:41:22;;;;;;;;;;;;;;;8.67;100.00;100489.91;4894073;29;19935;-50
2021/10/31 06:43:49;;;;;;;;;;;;;;;8.69;100.00;100492.44;4879422;29;20347;-50
2021/10/31 06:46:16;;;;;;;;;;;;;;;8.70;100.00;100494.97;4893624;29;20391;-50
2021/10/31 06:48:43;;;;;;;;;;;;;;;8.71;100.00;100493.16;4879529;29;20030;-47
2021/10/31 06:51:10;;;;;;;;;;;;;;;8.73;100.00;100493.94;4879868;29;19927;-51
2021/10/31 06:53:37;;;;;;;;;;;;;;;8.68;100.00;100502.06;4879583;29;19983;-52
2021/10/31 06:56:04;;;;;;;;;;;;;;;8.71;100.00;100503.66;4893628;29;20387;-54
2021/10/31 06:58:30;;;;;;;;;;;;;;;8.66;100.00;100496.09;4879222;29;20296;-51
2021/10/31 07:00:57;;;;;;;;;;;;;;;8.73;100.00;100486.88;4893777;29;19951;-50
2021/10/31 07:03:25;;;;;;;;;;;;;;;8.77;100.00;100477.06;4879385;29;19935;-51
2021/10/31 07:05:52;;;;;;;;;;;;;;;8.84;100.00;100475.72;4893957;29;20304;-51
2021/10/31 07:08:19;;;;;;;;;;;;;;;8.80;100.00;100469.00;4879414;29;19927;-50
2021/10/31 07:10:45;;;;;;;;;;;;;;;8.88;100.00;100473.75;4879353;29;19932;-52
2021/10/31 07:13:12;;;;;;;;;;;;;;;8.89;100.00;100475.41;4877947;29;19935;-52
2021/10/31 07:15:39;;;;;;;;;;;;;;;8.94;100.00;100465.47;4890440;29;19931;-51
2021/10/31 07:18:05;;;;;;;;;;;;;;;8.98;100.00;100471.38;4875024;29;20316;-50
2021/10/31 07:20:32;;;;;;;;;;;;;;;8.96;100.00;100474.94;4876002;29;19951;-50
2021/10/31 07:22:59;;;;;;;;;;;;;;;9.11;100.00;100472.28;4893515;29;19965;-44
2021/10/31 07:25:27;;;;;;;;;;;;;;;9.06;100.00;100474.34;4879139;29;20041;-45
2021/10/31 07:27:54;;;;;;;;;;;;;;;9.04;100.00;100465.72;4893242;29;19999;-44
2021/10/31 07:30:22;;;;;;;;;;;;;;;9.08;100.00;100461.97;4879232;29;20376;-46
2021/10/31 07:32:56;;;;;;;;;;;;;;;9.10;100.00;100457.47;4878026;29;19976;-53
2021/10/31 07:35:23;;;;;;;;;;;;;;;9.17;100.00;100458.75;4879686;29;20334;-50
2021/10/31 07:37:50;;;;;;;;;;;;;;;9.22;100.00;100443.53;4895796;29;19935;-52
2021/10/31 07:40:17;;;;;;;;;;;;;;;9.42;100.00;100444.84;4863877;29;19931;-49
2021/10/31 07:42:43;;;;;;;;;;;;;;;9.43;100.00;100435.19;4886247;29;19935;-46
2021/10/31 07:45:29;;;;;;;;;;;;;;;9.53;100.00;100431.03;4879934;29;19931;-46
2021/10/31 07:47:56;;;;;;;;;;;;;;;9.50;100.00;100431.19;4878785;29;20444;-45
2021/10/31 07:50:23;;;;;;;;;;;;;;;9.52;100.00;100418.81;4879193;29;19935;-45
2021/10/31 07:52:49;;;;;;;;;;;;;;;9.48;100.00;100436.56;4887068;29;19935;-43
2021/10/31 07:55:19;;;;;;;;;;;;;;;9.54;100.00;100432.69;4881522;29;19932;-47
2021/10/31 07:57:48;;;;;;;;;;;;;;;9.52;100.00;100437.19;4875952;29;19988;-45
2021/10/31 08:00:18;;;;;;;;;;;;;;;9.52;100.00;100424.06;4883315;29;20027;-46
2021/10/31 08:02:45;;;;;;;;;;;;;;;9.55;100.00;100434.38;4886005;29;19935;-46
2021/10/31 08:05:12;;;;;;;;;;;;;;;9.61;100.00;100426.09;4881644;29;19970;-45
2021/10/31 08:07:39;;;;;;;;;;;;;;;9.62;100.00;100432.16;4863527;29;19928;-45
2021/10/31 08:10:07;;;;;;;;;;;;;;;9.71;100.00;100434.19;4870442;29;19976;-49
2021/10/31 08:12:34;;;;;;;;;;;;;;;9.71;100.00;100431.56;4877168;29;20292;-48
2021/10/31 08:15:01;;;;;;;;;;;;;;;9.70;100.00;100429.88;4886661;29;19931;-46
2021/10/31 08:17:28;;;;;;;;;;;;;;;9.82;100.00;100425.56;4875177;29;19967;-53
2021/10/31 08:19:55;;;;;;;;;;;;;;;9.91;100.00;100424.94;4882282;29;19952;-54
2021/10/31 08:22:21;;;;;;;;;;;;;;;10.09;100.00;100416.69;4878895;29;19932;-52
2021/10/31 08:24:48;;;;;;;;;;;;;;;10.17;100.00;100424.91;4878333;29;19932;-53
2021/10/31 08:27:15;;;;;;;;;;;;;;;10.14;100.00;100425.97;4885362;29;19935;-55
2021/10/31 08:29:44;;;;;;;;;;;;;;;10.18;100.00;100421.31;4862817;29;19935;-55
2021/10/31 08:32:12;;;;;;;;;;;;;;;10.24;100.00;100431.41;4872774;29;19991;-52
2021/10/31 08:34:38;;;;;;;;;;;;;;;10.34;100.00;100430.78;4880473;29;20015;-51
2021/10/31 08:37:05;;;;;;;;;;;;;;;10.33;100.00;100427.28;4877264;29;19927;-53
2021/10/31 08:39:32;;;;;;;;;;;;;;;10.42;100.00;100412.69;4866941;29;19935;-52
2021/10/31 08:41:58;;;;;;;;;;;;;;;10.43;100.00;100409.09;4881092;29;19979;-53
2021/10/31 08:44:25;;;;;;;;;;;;;;;10.50;100.00;100405.09;4871007;29;20022;-53
2021/10/31 08:46:52;;;;;;;;;;;;;;;10.64;100.00;100402.31;4879604;29;19940;-50
2021/10/31 08:49:19;;;;;;;;;;;;;;;10.77;100.00;100412.78;4881379;29;20321;-53
2021/10/31 08:51:46;;;;;;;;;;;;;;;10.92;100.00;100394.19;4879293;29;19932;-45
2021/10/31 08:54:13;;;;;;;;;;;;;;;11.01;100.00;100376.91;4879082;29;20418;-46
2021/10/31 08:56:39;;;;;;;;;;;;;;;11.13;100.00;100363.63;4879443;29;20415;-54
2021/10/31 08:59:09;;;;;;;;;;;;;;;11.13;100.00;100361.00;4880482;29;20018;-45
2021/10/31 09:01:36;;;;;;;;;;;;;;;11.20;100.00;100353.50;4877474;29;19935;-44
2021/10/31 09:04:02;;;;;;;;;;;;;;;11.23;100.00;100355.06;4878549;29;19985;-43
2021/10/31 09:06:29;;;;;;;;;;;;;;;11.21;100.00;100360.44;4881250;29;19935;-47
2021/10/31 09:08:56;;;;;;;;;;;;;;;11.30;100.00;100366.78;4880351;29;20411;-46
2021/10/31 09:11:23;;;;;;;;;;;;;;;11.36;100.00;100360.22;4878379;29;20291;-47
2021/10/31 09:13:50;;;;;;;;;;;;;;;11.46;100.00;100350.69;4878567;29;19928;-46
2021/10/31 09:16:17;;;;;;;;;;;;;;;11.52;100.00;100337.06;4877426;29;19938;-47
2021/10/31 09:18:44;;;;;;;;;;;;;;;11.60;100.00;100326.75;4878033;29;19928;-48
2021/10/31 09:21:10;;;;;;;;;;;;;;;11.68;100.00;100341.94;4879043;29;19928;-45
2021/10/31 09:23:38;;;;;;;;;;;;;;;11.75;100.00;100348.44;4878778;29;19964;-46
2021/10/31 09:26:04;;;;;;;;;;;;;;;11.95;100.00;100346.88;4877822;29;20363;-48
2021/10/31 09:28:31;;;;;;;;;;;;;;;12.13;100.00;100349.03;4862754;29;19927;-47
2021/10/31 09:30:58;;;;;;;;;;;;;;;12.27;100.00;100346.13;4880419;29;19928;-46
2021/10/31 09:33:25;;;;;;;;;;;;;;;12.43;100.00;100336.97;4878058;29;19927;-50
2021/10/31 09:35:58;;;;;;;;;;;;;;;12.52;95.75;100313.31;4876638;29;19928;-45
2021/10/31 09:38:26;;;;;;;;;;;;;;;12.52;96.62;100315.13;4878335;29;20026;-44
2021/10/31 09:40:54;;;;;;;;;;;;;;;12.40;93.88;100305.59;4877720;29;20064;-45
2021/10/31 09:43:23;;;;;;;;;;;;;;;12.56;95.43;100302.56;4861778;29;19928;-45
2021/10/31 09:45:50;;;;;;;;;;;;;;;12.64;93.30;100297.47;4880050;29;19928;-46
2021/10/31 09:48:17;;;;;;;;;;;;;;;12.80;94.67;100292.59;4880957;29;20392;-54
2021/10/31 09:50:44;;;;;;;;;;;;;;;12.92;92.06;100288.06;4880406;29;19928;-54
2021/10/31 09:53:19;;;;;;;;;;;;;;;13.05;91.91;100293.19;4863180;29;20011;-52
2021/10/31 09:55:47;;;;;;;;;;;;;;;13.36;90.50;100282.66;4877628;29;20288;-49
2021/10/31 09:58:24;;;;;;;;;;;;;;;13.50;88.77;100290.25;4877052;29;19932;-46
2021/10/31 10:00:53;;;;;;;;;;;;;;;13.78;88.32;100281.72;4879123;29;19936;-49
2021/10/31 10:03:36;;;;;;;;;;;;;;;14.04;87.20;100276.78;4876451;29;20353;-48
2021/10/31 10:06:17;;;;;;;;;;;;;;;14.00;85.96;100289.44;4877623;29;20447;-48
2021/10/31 10:08:58;;;;;;;;;;;;;;;14.27;86.71;100279.19;4860642;29;19928;-48
2021/10/31 10:11:25;;;;;;;;;;;;;;;14.79;86.45;100268.34;4861614;29;19928;-48
2021/10/31 10:13:53;;;;;;;;;;;;;;;14.69;82.75;100269.19;4880347;29;19978;-48
2021/10/31 10:16:24;;;;;;;;;;;;;;;14.48;80.45;100266.66;4860740;29;19932;-47
2021/10/31 10:18:51;;;;;;;;;;;;;;;14.64;80.93;100255.56;4860422;29;19932;-50
2021/10/31 10:21:19;;;;;;;;;;;;;;;14.56;81.04;100251.91;4879643;29;19927;-48
2021/10/31 10:23:54;;;;;;;;;;;;;;;14.77;82.36;100246.50;4879449;29;19939;-49
2021/10/31 10:26:33;;;;;;;;;;;;;;;15.06;81.64;100248.25;4875814;29;20403;-48
2021/10/31 10:29:11;;;;;;;;;;;;;;;15.51;79.47;100242.22;4878864;29;19932;-49
2021/10/31 10:31:39;;;;;;;;;;;;;;;15.71;77.22;100238.47;4880199;29;19984;-46
2021/10/31 10:34:06;;;;;;;;;;;;;;;16.05;74.66;100224.63;4875036;29;19928;-50
2021/10/31 10:36:37;;;;;;;;;;;;;;;16.03;73.32;100226.59;4857855;29;19974;-47
2021/10/31 10:39:14;;;;;;;;;;;;;;;16.03;74.38;100221.31;4859545;29;19929;-49
2021/10/31 10:41:41;;;;;;;;;;;;;;;15.94;73.86;100216.91;4860058;29;19977;-45
2021/10/31 10:44:20;;;;;;;;;;;;;;;15.83;74.85;100217.13;4859324;29;19944;-48
2021/10/31 10:46:47;;;;;;;;;;;;;;;16.35;74.15;100209.31;4857705;29;19932;-45
2021/10/31 10:49:17;;;;;;;;;;;;;;;16.38;72.30;100211.66;4859316;29;20411;-54
2021/10/31 10:51:45;;;;;;;;;;;;;;;16.58;70.17;100207.97;4858778;29;19988;-55
2021/10/31 10:54:12;;;;;;;;;;;;;;;16.56;71.32;100190.41;4874165;29;19929;-53
2021/10/31 10:57:00;;;;;;;;;;;;;;;16.71;70.93;100182.72;4861347;29;20292;-51
2021/10/31 10:59:27;;;;;;;;;;;;;;;16.76;70.52;100178.75;4860719;29;19928;-52
2021/10/31 11:02:09;;;;;;;;;;;;;;;17.11;69.59;100175.16;4859227;29;19928;-54
2021/10/31 11:04:36;;;;;;;;;;;;;;;16.91;69.27;100163.94;4857654;29;19928;-54
2021/10/31 11:07:03;;;;;;;;;;;;;;;16.71;71.43;100150.00;4858531;29;19932;-54
2021/10/31 11:09:48;;;;;;;;;;;;;;;16.81;68.92;100149.91;4872031;29;19932;-51
2021/10/31 11:12:29;;;;;;;;;;;;;;;16.49;69.09;100133.63;4857999;29;19928;-50
2021/10/31 11:15:06;;;;;;;;;;;;;;;16.33;71.05;100138.81;4858056;29;19928;-52
2021/10/31 11:17:34;;;;;;;;;;;;;;;16.36;72.02;100128.72;4856170;29;19940;-46
2021/10/31 11:20:01;;;;;;;;;;;;;;;16.33;70.38;100126.41;4857899;29;19928;-46
2021/10/31 11:22:29;;;;;;;;;;;;;;;16.37;70.52;100122.44;4874754;29;19928;-48
2021/10/31 11:24:55;;;;;;;;;;;;;;;16.62;71.75;100127.91;4859164;29;19928;-48
2021/10/31 11:27:23;;;;;;;;;;;;;;;16.75;70.71;100108.06;4871911;29;20400;-51
2021/10/31 11:29:51;;;;;;;;;;;;;;;16.57;70.96;100106.31;4859682;29;20367;-54
2021/10/31 11:32:18;;;;;;;;;;;;;;;16.48;71.36;100084.16;4856809;29;19980;-51
2021/10/31 11:34:48;;;;;;;;;;;;;;;16.46;71.02;100083.50;4869075;29;20289;-52
2021/10/31 11:37:17;;;;;;;;;;;;;;;16.00;72.84;100085.50;4879073;29;20288;-52
2021/10/31 11:39:44;;;;;;;;;;;;;;;16.00;72.99;100072.25;4876157;29;19953;-54
2021/10/31 11:42:12;;;;;;;;;;;;;;;16.16;73.34;100072.38;4875239;29;19938;-52
2021/10/31 11:44:58;;;;;;;;;;;;;;;16.14;73.68;100061.09;4877292;29;20022;-54
2021/10/31 11:47:29;;;;;;;;;;;;;;;16.28;73.85;100049.06;4879103;29;19928;-53
2021/10/31 11:50:07;;;;;;;;;;;;;;;16.14;73.44;100041.69;4878097;29;19928;-51
2021/10/31 11:52:53;;;;;;;;;;;;;;;16.12;74.81;100033.88;4876511;29;19928;-45
2021/10/31 11:55:25;;;;;;;;;;;;;;;16.02;74.02;100026.03;4878241;29;19932;-47
2021/10/31 11:58:01;;;;;;;;;;;;;;;16.12;75.57;100025.94;4875736;29;20062;-47
2021/10/31 12:00:28;;;;;;;;;;;;;;;16.01;74.78;100011.09;4876472;29;19928;-48
2021/10/31 12:03:04;;;;;;;;;;;;;;;15.95;75.51;100017.03;4873348;29;20015;-47
2021/10/31 12:05:39;;;;;;;;;;;;;;;15.63;76.24;100010.47;4876227;29;20415;-45
2021/10/31 12:08:06;;;;;;;;;;;;;;;15.62;76.48;100000.84;4878943;29;19958;-45
2021/10/31 12:10:37;;;;;;;;;;;;;;;15.61;75.76;99985.09;4877800;29;19936;-45
2021/10/31 12:13:08;;;;;;;;;;;;;;;15.42;76.79;99984.28;4876221;29;20276;-49
2021/10/31 12:15:34;;;;;;;;;;;;;;;15.50;77.57;99976.41;4876754;29;20285;-46
2021/10/31 12:18:03;;;;;;;;;;;;;;;15.46;77.28;99975.06;4875686;29;19928;-45
2021/10/31 12:20:46;;;;;;;;;;;;;;;15.43;78.07;99971.88;4861308;29;19928;-45
2021/10/31 12:23:16;;;;;;;;;;;;;;;15.36;78.58;99971.63;4881565;29;20470;-47
2021/10/31 12:25:43;;;;;;;;;;;;;;;15.40;78.27;99959.75;4878221;29;19932;-46
2021/10/31 12:28:28;;;;;;;;;;;;;;;15.46;79.96;99958.31;4881062;29;19980;-48
2021/10/31 12:30:55;;;;;;;;;;;;;;;15.41;79.78;99950.84;4880829;29;19939;-47
2021/10/31 12:33:22;;;;;;;;;;;;;;;15.37;79.37;99934.41;4865149;29;19928;-45
2021/10/31 12:35:54;;;;;;;;;;;;;;;15.46;78.69;99926.50;4881862;29;19928;-46
2021/10/31 12:38:24;;;;;;;;;;;;;;;15.48;78.85;99920.06;4879321;29;19932;-46
2021/10/31 12:41:06;;;;;;;;;;;;;;;15.33;80.12;99919.78;4862764;29;20315;-46
2021/10/31 12:43:40;;;;;;;;;;;;;;;15.43;80.96;99922.34;4881166;29;20391;-47